Time;durP1;ratioP1;P1;durP2;ratioP2;P2;SDS_P1;SDS_P2;PMS_P1;PMS_P2;Temp;Humidity;BMP_temperature;BMP_pressure;BME280_temperature;BME280_humidity;BME280_pressure;Samples;Min_cycle;Max_cycle;Signal;HPM_P1;HPM_P2
2023/10/28 00:02:20;;;;;;;20.23;12.63;;;10.50;99.90;;;;;;4981326;28;20050;-76
2023/10/28 00:05:06;;;;;;;18.02;13.38;;;10.60;99.90;;;;;;4970707;28;20046;-76
2023/10/28 00:07:52;;;;;;;19.10;12.90;;;10.60;99.90;;;;;;4987486;28;20133;-76
2023/10/28 00:10:40;;;;;;;22.00;12.77;;;10.50;99.90;;;;;;4980305;28;20139;-77
2023/10/28 00:13:26;;;;;;;24.80;13.70;;;10.50;99.90;;;;;;4967419;28;20038;-77
2023/10/28 00:16:12;;;;;;;23.27;15.52;;;10.50;99.90;;;;;;4995191;28;20324;-76
2023/10/28 00:18:59;;;;;;;24.42;15.70;;;10.50;99.90;;;;;;4976557;28;20046;-76
2023/10/28 00:21:45;;;;;;;22.50;14.40;;;10.60;99.90;;;;;;4960525;28;20042;-76
2023/10/28 00:24:31;;;;;;;23.33;16.20;;;10.50;99.90;;;;;;4966996;28;20053;-76
2023/10/28 00:27:17;;;;;;;24.88;15.80;;;10.50;99.90;;;;;;4968201;28;20046;-76
2023/10/28 00:30:04;;;;;;;26.27;15.70;;;10.50;99.90;;;;;;4982261;28;20061;-76
2023/10/28 00:32:56;;;;;;;23.95;15.60;;;10.50;99.90;;;;;;4979454;28;20038;-76
2023/10/28 00:35:43;;;;;;;26.92;17.42;;;10.60;99.90;;;;;;4965215;28;20474;-77
2023/10/28 00:38:30;;;;;;;27.73;17.10;;;10.50;99.90;;;;;;4963557;28;20045;-77
2023/10/28 00:41:17;;;;;;;27.08;17.95;;;10.50;99.90;;;;;;4986164;28;20483;-76
2023/10/28 00:44:04;;;;;;;32.53;18.67;;;10.40;99.90;;;;;;4992689;28;20049;-76
2023/10/28 00:46:50;;;;;;;29.20;18.10;;;10.40;99.90;;;;;;4967180;28;20057;-76
2023/10/28 00:49:36;;;;;;;34.35;19.35;;;10.40;99.90;;;;;;4956042;28;20109;-76
2023/10/28 00:52:23;;;;;;;33.35;20.10;;;10.40;99.90;;;;;;4962751;28;20039;-76
2023/10/28 00:55:10;;;;;;;32.53;18.52;;;10.40;99.90;;;;;;4987232;28;20038;-76
2023/10/28 00:57:56;;;;;;;33.17;18.45;;;10.40;99.90;;;;;;4966069;28;20050;-74
2023/10/28 01:00:42;;;;;;;24.80;15.52;;;10.40;99.90;;;;;;4981032;28;20037;-77
2023/10/28 01:03:30;;;;;;;28.73;16.67;;;10.50;99.90;;;;;;4966852;28;20045;-77
2023/10/28 01:06:16;;;;;;;28.27;18.17;;;10.50;99.90;;;;;;4967044;28;20151;-77
2023/10/28 01:09:02;;;;;;;30.30;18.55;;;10.50;99.90;;;;;;4972993;28;20123;-77
2023/10/28 01:11:49;;;;;;;30.88;17.50;;;10.50;99.90;;;;;;4978269;28;20122;-77
2023/10/28 01:14:35;;;;;;;32.33;17.95;;;10.40;99.90;;;;;;4983285;28;20121;-76
2023/10/28 01:17:25;;;;;;;31.45;17.52;;;10.40;99.90;;;;;;4954767;28;20130;-76
2023/10/28 01:20:11;;;;;;;31.67;17.63;;;10.40;99.90;;;;;;4983200;28;20051;-76
2023/10/28 01:22:58;;;;;;;30.45;18.40;;;10.40;99.90;;;;;;4962618;28;20924;-76
2023/10/28 01:25:44;;;;;;;32.20;17.83;;;10.40;99.90;;;;;;4964838;28;20113;-76
2023/10/28 01:28:30;;;;;;;30.00;18.77;;;10.40;99.90;;;;;;4949806;28;20086;-76
2023/10/28 01:31:17;;;;;;;28.25;17.05;;;10.40;99.90;;;;;;4965123;28;20395;-76
2023/10/28 01:34:03;;;;;;;25.75;16.90;;;10.40;99.90;;;;;;4982619;28;20042;-76
2023/10/28 01:36:49;;;;;;;28.50;16.98;;;10.40;99.90;;;;;;4966033;28;20069;-76
2023/10/28 01:39:35;;;;;;;28.10;17.40;;;10.50;99.90;;;;;;4990817;28;20046;-76
2023/10/28 01:42:22;;;;;;;29.65;18.00;;;10.50;99.90;;;;;;4977383;28;20470;-76
2023/10/28 01:45:09;;;;;;;25.27;16.05;;;10.50;99.90;;;;;;4962318;28;20052;-76
2023/10/28 01:47:55;;;;;;;26.83;17.23;;;10.60;99.90;;;;;;4984293;28;20042;-76
2023/10/28 01:50:41;;;;;;;27.83;17.42;;;10.60;99.90;;;;;;4985338;28;20688;-76
2023/10/28 01:53:27;;;;;;;27.42;17.15;;;10.50;99.90;;;;;;4972786;28;20050;-76
2023/10/28 01:56:13;;;;;;;31.02;19.52;;;10.50;99.90;;;;;;4992349;28;20038;-76
2023/10/28 01:58:59;;;;;;;26.95;17.25;;;10.50;99.90;;;;;;4977041;28;20089;-76
2023/10/28 02:01:45;;;;;;;27.60;16.52;;;10.50;99.90;;;;;;4968013;28;20042;-76
2023/10/28 02:04:31;;;;;;;31.98;19.10;;;10.60;99.90;;;;;;4965652;28;20050;-76
2023/10/28 02:07:17;;;;;;;37.00;19.67;;;10.60;99.90;;;;;;4977959;28;20125;-76
2023/10/28 02:10:07;;;;;;;32.40;18.00;;;10.60;99.90;;;;;;4974883;28;20046;-76
2023/10/28 02:12:53;;;;;;;32.85;18.88;;;10.60;99.90;;;;;;4977388;28;20117;-76
2023/10/28 02:15:39;;;;;;;29.13;17.77;;;10.50;99.90;;;;;;4967039;28;20042;-76
2023/10/28 02:18:25;;;;;;;28.95;17.30;;;10.60;99.90;;;;;;4979764;28;20136;-76
2023/10/28 02:21:11;;;;;;;28.60;16.83;;;10.60;99.90;;;;;;4979081;28;20039;-77
2023/10/28 02:23:57;;;;;;;25.98;17.08;;;10.60;99.90;;;;;;4970113;28;20101;-77
2023/10/28 02:26:43;;;;;;;26.23;16.90;;;10.50;99.90;;;;;;4978339;28;20038;-77
2023/10/28 02:29:29;;;;;;;27.92;17.23;;;10.60;99.90;;;;;;4992923;28;20046;-77
2023/10/28 02:32:16;;;;;;;26.13;16.48;;;10.60;99.90;;;;;;4969821;28;20061;-77
2023/10/28 02:35:02;;;;;;;26.08;16.42;;;10.50;99.90;;;;;;4952466;28;20087;-76
2023/10/28 02:37:48;;;;;;;25.85;15.48;;;10.50;99.90;;;;;;4990073;28;20378;-77
2023/10/28 02:40:35;;;;;;;27.45;16.58;;;10.50;99.90;;;;;;4948999;28;20034;-77
2023/10/28 02:43:20;;;;;;;25.20;16.65;;;10.50;99.90;;;;;;4959268;28;20379;-77
2023/10/28 02:46:09;;;;;;;26.10;15.88;;;10.50;99.90;;;;;;4972789;28;20042;-77
2023/10/28 02:48:55;;;;;;;25.80;15.65;;;10.40;99.90;;;;;;4985300;28;20378;-79
2023/10/28 02:51:42;;;;;;;27.30;16.30;;;10.50;99.90;;;;;;4961593;28;20038;-79
2023/10/28 02:54:28;;;;;;;27.20;16.17;;;10.50;99.90;;;;;;4957668;28;20043;-79
2023/10/28 02:57:14;;;;;;;23.67;15.15;;;10.40;99.90;;;;;;4987308;28;20656;-79
2023/10/28 03:00:00;;;;;;;25.92;15.15;;;10.50;99.90;;;;;;4942860;28;20050;-79
2023/10/28 03:02:46;;;;;;;28.15;15.63;;;10.50;99.90;;;;;;4975086;28;20034;-79
2023/10/28 03:05:32;;;;;;;23.48;14.98;;;10.50;99.90;;;;;;4960835;28;20069;-78
2023/10/28 03:08:19;;;;;;;23.48;14.85;;;10.50;99.90;;;;;;4977005;28;20035;-79
2023/10/28 03:11:05;;;;;;;23.65;15.23;;;10.50;99.90;;;;;;4943126;29;20105;-79
2023/10/28 03:13:51;;;;;;;26.67;15.27;;;10.40;99.90;;;;;;4951433;28;20042;-79
2023/10/28 03:16:38;;;;;;;28.42;14.60;;;10.40;99.90;;;;;;4964154;28;20157;-79
2023/10/28 03:19:24;;;;;;;25.98;15.25;;;10.50;99.90;;;;;;4970779;28;20038;-79
2023/10/28 03:22:10;;;;;;;22.88;15.00;;;10.40;99.90;;;;;;4973100;28;20050;-79
2023/10/28 03:24:56;;;;;;;22.65;15.02;;;10.40;99.90;;;;;;4961242;28;20093;-79
2023/10/28 03:27:42;;;;;;;31.35;18.88;;;10.40;99.90;;;;;;4947949;28;20050;-79
2023/10/28 03:30:28;;;;;;;26.17;16.42;;;10.40;99.90;;;;;;4949103;28;20057;-79
2023/10/28 03:33:14;;;;;;;26.20;16.23;;;10.40;99.90;;;;;;4961396;28;20042;-78
2023/10/28 03:36:00;;;;;;;25.10;16.58;;;10.40;99.90;;;;;;4963211;28;20482;-79
2023/10/28 03:38:46;;;;;;;23.90;15.05;;;10.40;99.90;;;;;;4978520;28;20043;-79
2023/10/28 03:41:32;;;;;;;25.77;14.52;;;10.40;99.90;;;;;;4964703;28;20034;-78
2023/10/28 03:44:19;;;;;;;25.70;14.85;;;10.40;99.90;;;;;;4978575;28;20086;-79
2023/10/28 03:47:07;;;;;;;22.65;14.00;;;10.40;99.90;;;;;;4964393;28;20081;-79
2023/10/28 03:49:52;;;;;;;23.70;13.90;;;10.40;99.90;;;;;;4977994;28;20058;-79
2023/10/28 03:52:38;;;;;;;23.80;14.65;;;10.40;99.90;;;;;;4948887;28;20090;-79
2023/10/28 03:55:25;;;;;;;24.27;13.45;;;10.40;99.90;;;;;;4938155;28;20443;-79
2023/10/28 03:58:11;;;;;;;24.30;14.57;;;10.40;99.90;;;;;;4960749;28;20066;-79
2023/10/28 04:00:58;;;;;;;24.33;13.93;;;10.40;99.90;;;;;;4944681;29;20134;-79
2023/10/28 04:03:45;;;;;;;22.45;14.10;;;10.40;99.90;;;;;;4975937;28;20125;-79
2023/10/28 04:06:31;;;;;;;22.70;14.33;;;10.40;99.90;;;;;;4953771;28;20483;-79
2023/10/28 04:09:17;;;;;;;23.48;14.13;;;10.30;99.90;;;;;;4962857;28;20286;-79
2023/10/28 04:12:05;;;;;;;23.15;14.43;;;10.40;99.90;;;;;;4969585;28;20146;-79
2023/10/28 04:14:51;;;;;;;23.17;13.38;;;10.40;99.90;;;;;;4964714;28;20545;-79
2023/10/28 04:17:37;;;;;;;21.45;12.32;;;10.40;99.90;;;;;;4978006;28;20070;-79
2023/10/28 04:20:23;;;;;;;20.02;12.55;;;10.40;99.90;;;;;;4964635;28;20057;-79
2023/10/28 04:23:10;;;;;;;21.58;12.88;;;10.30;99.90;;;;;;4976883;28;20482;-79
2023/10/28 04:25:56;;;;;;;23.52;12.23;;;10.30;99.90;;;;;;4977048;28;20042;-79
2023/10/28 04:28:43;;;;;;;26.00;13.27;;;10.30;99.90;;;;;;4976937;28;20051;-79
2023/10/28 04:31:29;;;;;;;20.55;13.18;;;10.30;99.90;;;;;;4963608;28;20050;-79
2023/10/28 04:34:15;;;;;;;24.70;13.18;;;10.30;99.90;;;;;;4963508;28;20066;-79
2023/10/28 04:37:01;;;;;;;24.30;12.95;;;10.30;99.90;;;;;;4962753;28;20126;-79
2023/10/28 04:39:48;;;;;;;22.30;12.82;;;10.30;99.90;;;;;;4976255;28;20039;-79
2023/10/28 04:42:34;;;;;;;21.67;11.68;;;10.30;99.90;;;;;;4976736;28;20043;-79
2023/10/28 04:45:21;;;;;;;21.48;12.02;;;10.20;99.90;;;;;;4977793;28;20046;-79
2023/10/28 04:48:08;;;;;;;19.15;12.18;;;10.30;99.90;;;;;;4975775;28;20376;-79
2023/10/28 04:50:54;;;;;;;20.95;12.45;;;10.20;99.90;;;;;;4967852;28;20043;-79
2023/10/28 04:53:40;;;;;;;19.25;11.15;;;10.20;99.90;;;;;;4961204;28;20399;-79
2023/10/28 04:56:26;;;;;;;20.77;11.13;;;10.20;99.90;;;;;;4969060;28;20049;-79
2023/10/28 04:59:12;;;;;;;16.25;10.10;;;10.20;99.90;;;;;;4962380;28;20352;-79
2023/10/28 05:01:59;;;;;;;17.88;9.25;;;10.20;99.90;;;;;;4985719;28;20039;-79
2023/10/28 05:04:45;;;;;;;14.60;8.70;;;10.10;99.90;;;;;;4990971;28;20574;-78
2023/10/28 05:07:32;;;;;;;15.98;8.60;;;10.20;99.90;;;;;;4963700;28;20382;-79
2023/10/28 05:10:18;;;;;;;15.85;9.27;;;10.10;99.90;;;;;;4977025;28;20047;-79
2023/10/28 05:13:04;;;;;;;15.80;9.75;;;10.20;99.90;;;;;;4962927;28;20126;-79
2023/10/28 05:15:50;;;;;;;20.85;11.70;;;10.20;99.90;;;;;;4952575;28;20055;-79
2023/10/28 05:18:36;;;;;;;15.75;10.10;;;10.10;99.90;;;;;;4962389;28;20105;-79
2023/10/28 05:21:22;;;;;;;18.38;11.25;;;10.10;99.90;;;;;;4962883;28;20068;-79
2023/10/28 05:24:09;;;;;;;17.38;10.40;;;10.20;99.90;;;;;;4976641;28;20546;-78
2023/10/28 05:26:55;;;;;;;25.63;11.25;;;10.10;99.90;;;;;;4956065;28;20054;-79
2023/10/28 05:29:41;;;;;;;20.75;11.60;;;10.10;99.90;;;;;;4956553;28;20093;-79
2023/10/28 05:32:29;;;;;;;19.15;10.20;;;10.20;99.90;;;;;;4949806;28;20066;-79
2023/10/28 05:35:15;;;;;;;20.25;10.02;;;10.20;99.90;;;;;;4961768;28;20038;-79
2023/10/28 05:38:01;;;;;;;23.63;10.98;;;10.10;99.90;;;;;;4975503;28;20098;-79
2023/10/28 05:40:47;;;;;;;19.92;11.50;;;10.10;99.90;;;;;;4948981;28;20058;-79
2023/10/28 05:43:33;;;;;;;20.60;10.52;;;10.20;99.90;;;;;;4966033;28;20038;-79
2023/10/28 05:46:22;;;;;;;17.73;10.25;;;10.20;99.90;;;;;;4975484;28;20536;-79
2023/10/28 05:49:12;;;;;;;21.35;10.23;;;10.20;99.90;;;;;;4972149;28;20129;-79
2023/10/28 05:51:58;;;;;;;17.58;10.00;;;10.20;99.90;;;;;;4943387;29;20047;-79
2023/10/28 05:54:44;;;;;;;17.35;9.25;;;10.20;99.90;;;;;;4948346;28;20065;-79
2023/10/28 05:57:30;;;;;;;20.42;9.70;;;10.20;99.90;;;;;;4960995;28;20038;-79
2023/10/28 06:00:16;;;;;;;18.45;9.43;;;10.20;99.90;;;;;;4957729;28;20799;-79
2023/10/28 06:03:02;;;;;;;22.30;10.27;;;10.20;99.90;;;;;;4961573;28;20104;-79
2023/10/28 06:05:48;;;;;;;18.65;8.75;;;10.20;99.90;;;;;;4951659;28;20051;-78
2023/10/28 06:08:34;;;;;;;13.82;7.70;;;10.20;99.90;;;;;;4975403;28;20097;-79
2023/10/28 06:11:20;;;;;;;21.60;7.55;;;10.20;99.90;;;;;;4966679;28;20051;-79
2023/10/28 06:14:07;;;;;;;16.77;7.68;;;10.10;99.90;;;;;;4965184;28;20177;-79
2023/10/28 06:16:53;;;;;;;15.40;7.43;;;10.10;99.90;;;;;;4962784;28;20062;-78
2023/10/28 06:19:42;;;;;;;15.10;8.00;;;10.10;99.90;;;;;;4961458;28;20085;-78
2023/10/28 06:22:28;;;;;;;14.38;6.28;;;10.10;99.90;;;;;;4949329;28;20110;-79
2023/10/28 06:25:14;;;;;;;15.65;6.88;;;10.10;99.90;;;;;;4958841;28;20035;-79
2023/10/28 06:28:02;;;;;;;11.18;5.93;;;10.10;99.90;;;;;;4957263;28;20129;-79
2023/10/28 06:30:48;;;;;;;10.48;5.63;;;10.10;99.90;;;;;;4961964;28;20038;-79
2023/10/28 06:33:34;;;;;;;11.48;5.60;;;10.10;99.90;;;;;;4961356;28;20412;-79
2023/10/28 06:36:20;;;;;;;15.95;5.60;;;10.00;99.90;;;;;;4954921;28;20155;-79
2023/10/28 06:39:08;;;;;;;11.10;5.07;;;10.00;99.90;;;;;;4964424;28;20090;-79
2023/10/28 06:41:54;;;;;;;10.50;4.72;;;10.00;99.90;;;;;;4961352;28;20050;-80
2023/10/28 06:44:43;;;;;;;11.27;5.13;;;10.00;99.90;;;;;;4950159;28;20053;-79
2023/10/28 06:47:29;;;;;;;8.77;4.95;;;10.00;99.90;;;;;;4981350;28;20043;-80
2023/10/28 06:50:19;;;;;;;14.18;5.10;;;9.90;99.90;;;;;;4947481;28;20046;-80
2023/10/28 06:53:05;;;;;;;12.77;5.30;;;9.90;99.90;;;;;;4967386;28;20097;-79
2023/10/28 06:55:51;;;;;;;7.30;4.65;;;10.00;99.90;;;;;;4967819;28;20046;-79
2023/10/28 06:58:37;;;;;;;12.90;4.80;;;9.90;99.90;;;;;;4970683;28;20045;-79
2023/10/28 07:01:23;;;;;;;14.43;5.25;;;10.00;99.90;;;;;;4965418;28;20046;-79
2023/10/28 07:04:10;;;;;;;8.00;4.60;;;10.00;99.90;;;;;;4961099;28;20165;-79
2023/10/28 07:06:56;;;;;;;8.88;4.68;;;10.00;99.90;;;;;;4961199;28;20104;-79
2023/10/28 07:09:42;;;;;;;12.52;4.55;;;10.00;99.90;;;;;;4962578;28;20421;-79
2023/10/28 07:12:28;;;;;;;11.93;4.97;;;10.00;99.90;;;;;;4978492;28;20069;-79
2023/10/28 07:15:15;;;;;;;10.45;5.50;;;10.00;99.90;;;;;;4960343;28;20475;-79
2023/10/28 07:18:01;;;;;;;10.73;5.43;;;10.00;99.90;;;;;;4965202;28;20058;-79
2023/10/28 07:20:46;;;;;;;12.73;5.90;;;10.00;99.90;;;;;;4979344;28;20039;-79
2023/10/28 07:23:32;;;;;;;14.82;5.50;;;10.00;99.90;;;;;;4984937;28;20049;-80
2023/10/28 07:26:18;;;;;;;10.88;5.53;;;10.00;99.90;;;;;;4984263;28;20764;-79
2023/10/28 07:29:07;;;;;;;13.90;6.57;;;10.00;99.90;;;;;;4977749;28;20042;-79
2023/10/28 07:31:53;;;;;;;11.05;6.28;;;10.10;99.90;;;;;;4960060;28;20047;-80
2023/10/28 07:34:40;;;;;;;13.13;7.55;;;10.10;99.90;;;;;;4975153;28;20030;-80
2023/10/28 07:37:26;;;;;;;16.73;8.35;;;10.10;99.90;;;;;;4951582;28;20039;-79
2023/10/28 07:40:14;;;;;;;21.33;8.13;;;10.10;99.90;;;;;;4965975;28;20066;-79
2023/10/28 07:43:00;;;;;;;19.50;7.17;;;10.10;99.90;;;;;;4963550;28;20049;-79
2023/10/28 07:45:46;;;;;;;15.38;7.50;;;10.10;99.90;;;;;;4977043;28;20278;-79
2023/10/28 07:48:32;;;;;;;13.10;7.22;;;10.10;99.90;;;;;;4958991;28;20111;-79
2023/10/28 07:51:18;;;;;;;19.67;7.93;;;10.10;99.90;;;;;;4952784;28;20778;-79
2023/10/28 07:54:04;;;;;;;15.27;8.15;;;10.20;99.90;;;;;;4965690;28;20444;-79
2023/10/28 07:56:51;;;;;;;14.75;7.63;;;10.20;99.90;;;;;;4974747;28;20525;-79
2023/10/28 07:59:37;;;;;;;19.98;8.48;;;10.20;99.90;;;;;;4954566;28;20118;-79
2023/10/28 08:02:23;;;;;;;13.00;8.43;;;10.20;99.90;;;;;;4961142;28;20047;-79
2023/10/28 08:05:10;;;;;;;17.55;8.15;;;10.20;99.90;;;;;;4966168;28;20046;-79
2023/10/28 08:07:55;;;;;;;14.55;7.20;;;10.20;99.90;;;;;;4970658;28;20670;-79
2023/10/28 08:10:42;;;;;;;13.30;7.45;;;10.20;99.90;;;;;;4975072;28;20101;-79
2023/10/28 08:13:28;;;;;;;18.65;8.27;;;10.30;99.90;;;;;;4960212;28;20035;-79
2023/10/28 08:16:18;;;;;;;19.25;8.13;;;10.30;99.90;;;;;;4985540;28;20181;-79
2023/10/28 08:19:04;;;;;;;14.05;8.20;;;10.30;99.90;;;;;;4966867;28;20045;-79
2023/10/28 08:21:50;;;;;;;17.50;8.15;;;10.30;99.90;;;;;;4954110;28;20042;-79
2023/10/28 08:24:36;;;;;;;13.15;7.40;;;10.40;99.90;;;;;;4957774;28;20038;-79
2023/10/28 08:27:22;;;;;;;16.63;7.95;;;10.40;99.90;;;;;;4953971;28;20525;-79
2023/10/28 08:30:09;;;;;;;16.60;7.47;;;10.40;99.90;;;;;;4977694;28;20035;-79
2023/10/28 08:32:55;;;;;;;17.88;7.93;;;10.40;99.90;;;;;;4975289;28;20050;-79
2023/10/28 08:35:41;;;;;;;18.42;8.30;;;10.50;99.90;;;;;;4962288;28;20038;-79
2023/10/28 08:38:28;;;;;;;13.95;7.20;;;10.50;99.90;;;;;;4962183;28;20126;-79
2023/10/28 08:41:16;;;;;;;10.05;6.30;;;10.50;99.90;;;;;;4966118;28;20039;-79
2023/10/28 08:44:06;;;;;;;13.68;7.00;;;10.50;99.90;;;;;;4956565;29;20073;-79
2023/10/28 08:46:51;;;;;;;13.95;7.70;;;10.60;99.90;;;;;;4957350;29;20534;-79
2023/10/28 08:49:39;;;;;;;11.07;7.22;;;10.60;99.90;;;;;;4950053;28;20050;-79
2023/10/28 08:52:25;;;;;;;20.42;8.05;;;10.60;99.90;;;;;;4950459;28;20049;-78
2023/10/28 08:55:11;;;;;;;15.23;7.32;;;10.60;99.90;;;;;;4950854;28;20043;-79
2023/10/28 08:57:57;;;;;;;14.88;7.88;;;10.60;99.90;;;;;;4963245;28;20138;-79
2023/10/28 09:00:43;;;;;;;15.57;8.10;;;10.60;99.90;;;;;;4963891;28;20043;-79
2023/10/28 09:03:30;;;;;;;16.55;7.60;;;10.60;99.90;;;;;;4943235;29;20073;-79
2023/10/28 09:06:16;;;;;;;15.65;7.43;;;10.70;99.90;;;;;;4934442;28;20039;-79
2023/10/28 09:09:06;;;;;;;13.90;6.60;;;10.70;99.90;;;;;;4956422;29;20053;-79
2023/10/28 09:11:55;;;;;;;12.05;6.35;;;10.70;99.90;;;;;;4943299;29;20043;-79
2023/10/28 09:14:41;;;;;;;13.68;6.95;;;10.70;99.90;;;;;;4966712;28;20049;-78
2023/10/28 09:17:27;;;;;;;17.98;9.38;;;10.70;99.90;;;;;;4956100;28;20105;-79
2023/10/28 09:20:14;;;;;;;14.48;7.63;;;10.80;99.90;;;;;;4950931;28;20035;-79
2023/10/28 09:22:59;;;;;;;14.70;6.80;;;10.80;99.90;;;;;;4976161;28;20097;-79
2023/10/28 09:25:46;;;;;;;15.35;7.07;;;10.80;99.90;;;;;;4932944;29;20039;-78
2023/10/28 09:28:32;;;;;;;13.00;6.47;;;10.80;99.90;;;;;;4939727;28;20118;-79
2023/10/28 09:31:24;;;;;;;11.40;6.45;;;10.80;99.90;;;;;;4963152;28;20355;-79
2023/10/28 09:34:11;;;;;;;13.15;6.32;;;10.80;99.90;;;;;;4962739;28;20298;-79
2023/10/28 09:36:57;;;;;;;13.25;6.78;;;10.80;99.90;;;;;;4974920;28;20108;-79
2023/10/28 09:39:47;;;;;;;8.82;5.55;;;10.90;99.90;;;;;;4957596;28;20071;-78
2023/10/28 09:42:34;;;;;;;11.45;6.13;;;11.00;99.90;;;;;;4973765;28;20043;-79
2023/10/28 09:45:20;;;;;;;10.95;6.38;;;11.00;99.90;;;;;;4963234;28;20115;-79
2023/10/28 09:48:16;;;;;;;9.85;5.43;;;11.00;99.90;;;;;;4961997;28;20126;-79
2023/10/28 09:51:02;;;;;;;13.20;5.80;;;11.10;99.90;;;;;;4945477;28;20038;-78
2023/10/28 09:54:02;;;;;;;12.00;5.32;;;11.10;99.90;;;;;;4962782;28;20034;-78
2023/10/28 09:56:49;;;;;;;10.40;6.22;;;11.10;99.90;;;;;;4963552;28;20038;-79
2023/10/28 09:59:36;;;;;;;8.82;5.63;;;11.10;99.90;;;;;;4968902;28;20035;-79
2023/10/28 10:02:37;;;;;;;12.32;5.45;;;11.10;99.90;;;;;;4943488;28;20047;-79
2023/10/28 10:05:29;;;;;;;11.90;5.80;;;11.20;99.90;;;;;;4967419;28;20049;-79
2023/10/28 10:08:24;;;;;;;10.93;5.85;;;11.10;99.90;;;;;;4949251;28;20430;-79
2023/10/28 10:11:10;;;;;;;11.40;6.00;;;11.20;99.90;;;;;;4951622;28;20121;-77
2023/10/28 10:14:06;;;;;;;11.98;7.32;;;11.20;99.90;;;;;;4974409;28;20043;-76
2023/10/28 10:17:02;;;;;;;11.02;5.70;;;11.30;99.90;;;;;;4949943;28;20043;-77
2023/10/28 10:19:49;;;;;;;13.07;6.40;;;11.40;99.90;;;;;;4945114;28;20043;-76
2023/10/28 10:22:37;;;;;;;14.07;6.25;;;11.50;99.90;;;;;;4953796;28;20042;-76
2023/10/28 10:25:33;;;;;;;11.63;6.93;;;11.50;99.90;;;;;;4950695;28;20057;-76
2023/10/28 10:28:20;;;;;;;12.85;6.53;;;11.60;99.90;;;;;;4959734;28;20038;-77
2023/10/28 10:31:09;;;;;;;13.23;5.43;;;11.60;99.90;;;;;;4946843;28;20050;-76
2023/10/28 10:34:07;;;;;;;10.07;5.60;;;11.60;99.90;;;;;;4968241;28;20046;-76
2023/10/28 10:36:53;;;;;;;10.23;5.45;;;11.70;99.90;;;;;;4935313;28;20105;-77
2023/10/28 10:39:43;;;;;;;7.25;4.85;;;11.80;99.90;;;;;;4988854;28;20094;-77
2023/10/28 10:42:29;;;;;;;9.98;6.20;;;11.80;99.90;;;;;;4967203;28;20047;-78
2023/10/28 10:45:17;;;;;;;7.07;5.20;;;11.80;99.90;;;;;;4959655;28;20038;-76
2023/10/28 10:48:09;;;;;;;11.25;6.30;;;11.90;99.90;;;;;;4972049;28;20053;-76
2023/10/28 10:50:57;;;;;;;9.68;6.75;;;11.90;99.90;;;;;;4967532;28;20475;-77
2023/10/28 10:53:43;;;;;;;8.68;5.22;;;12.00;99.90;;;;;;4960717;28;20074;-77
2023/10/28 10:56:32;;;;;;;17.77;6.13;;;12.10;99.90;;;;;;4961079;28;20030;-77
2023/10/28 10:59:18;;;;;;;7.05;5.55;;;12.20;99.90;;;;;;4947787;28;20034;-78
2023/10/28 11:02:04;;;;;;;9.57;4.65;;;12.30;99.90;;;;;;4954091;29;20035;-77
2023/10/28 11:04:50;;;;;;;5.15;3.90;;;13.10;99.90;;;;;;4951523;28;20073;-77
2023/10/28 11:07:36;;;;;;;9.32;3.78;;;14.00;99.90;;;;;;4967660;28;20038;-77
2023/10/28 11:10:23;;;;;;;6.70;3.05;;;14.30;99.90;;;;;;4974671;28;20049;-78
2023/10/28 11:13:09;;;;;;;6.65;2.90;;;14.60;99.90;;;;;;4935495;28;20039;-76
2023/10/28 11:15:55;;;;;;;4.72;2.92;;;14.40;99.90;;;;;;4973184;28;20101;-76
2023/10/28 11:18:43;;;;;;;9.60;3.45;;;14.30;99.90;;;;;;4944185;29;20043;-76
2023/10/28 11:21:30;;;;;;;5.90;3.17;;;14.00;99.90;;;;;;4959750;28;20050;-75
2023/10/28 11:24:17;;;;;;;8.32;3.15;;;13.80;99.90;;;;;;4943520;28;20050;-75
2023/10/28 11:27:03;;;;;;;5.70;3.00;;;13.70;99.90;;;;;;4960890;28;20051;-75
2023/10/28 11:29:57;;;;;;;5.32;2.80;;;13.60;99.90;;;;;;4953185;28;20035;-76
2023/10/28 11:32:43;;;;;;;4.25;2.70;;;13.50;99.90;;;;;;4954269;28;20054;-75
2023/10/28 11:35:30;;;;;;;6.07;1.88;;;13.40;99.90;;;;;;4972171;28;20039;-75
2023/10/28 11:38:16;;;;;;;5.00;1.83;;;13.50;99.90;;;;;;4960140;28;20748;-75
2023/10/28 11:41:06;;;;;;;4.28;1.55;;;13.60;99.90;;;;;;4959262;28;20047;-75
2023/10/28 11:43:52;;;;;;;3.05;0.98;;;13.60;99.90;;;;;;4959194;28;20038;-75
2023/10/28 11:46:39;;;;;;;3.50;1.08;;;13.60;99.90;;;;;;4945030;28;20050;-76
2023/10/28 11:49:25;;;;;;;1.30;0.90;;;13.50;99.90;;;;;;4936310;28;20459;-76
2023/10/28 11:52:12;;;;;;;3.03;1.13;;;13.50;99.90;;;;;;4972946;28;20050;-76
2023/10/28 11:55:04;;;;;;;4.40;1.30;;;13.30;99.90;;;;;;4941082;28;20670;-78
2023/10/28 11:57:50;;;;;;;5.60;1.30;;;13.20;99.90;;;;;;4948483;28;20039;-78
2023/10/28 12:00:37;;;;;;;2.53;1.10;;;13.10;99.90;;;;;;4951354;28;20038;-78
2023/10/28 12:03:23;;;;;;;3.78;1.10;;;13.00;99.90;;;;;;4963267;28;20054;-78
2023/10/28 12:06:10;;;;;;;10.88;1.15;;;12.90;99.90;;;;;;4946295;28;20053;-78
2023/10/28 12:08:59;;;;;;;5.28;1.50;;;12.80;99.90;;;;;;4951271;28;20043;-78
2023/10/28 12:11:48;;;;;;;2.30;1.25;;;12.80;99.90;;;;;;4960990;28;20050;-77
2023/10/28 12:14:34;;;;;;;2.53;1.08;;;12.60;99.90;;;;;;4950341;28;20042;-78
2023/10/28 12:17:21;;;;;;;2.08;1.10;;;12.60;99.90;;;;;;4957594;28;20050;-78
2023/10/28 12:20:08;;;;;;;2.97;1.00;;;12.60;99.90;;;;;;4950556;28;20126;-78
2023/10/28 12:22:54;;;;;;;1.88;0.90;;;12.60;99.90;;;;;;4963714;28;20045;-78
2023/10/28 12:25:40;;;;;;;2.72;0.85;;;12.60;99.90;;;;;;4975983;28;20070;-78
2023/10/28 12:28:26;;;;;;;2.15;0.70;;;12.50;99.90;;;;;;4949630;28;20039;-78
2023/10/28 12:31:12;;;;;;;2.10;0.77;;;12.40;99.90;;;;;;4959089;28;20042;-78
2023/10/28 12:34:01;;;;;;;2.20;1.23;;;12.40;99.90;;;;;;4944915;28;20090;-78
2023/10/28 12:36:50;;;;;;;2.25;0.70;;;12.40;99.90;;;;;;4977977;28;20078;-78
2023/10/28 12:39:38;;;;;;;4.57;1.10;;;12.40;99.90;;;;;;4977530;28;20474;-78
2023/10/28 12:42:24;;;;;;;3.55;0.75;;;12.50;99.90;;;;;;4953877;28;20054;-78
2023/10/28 12:45:11;;;;;;;2.30;0.90;;;12.40;99.90;;;;;;4950927;28;20113;-78
2023/10/28 12:47:57;;;;;;;2.88;1.35;;;12.40;99.90;;;;;;4950751;29;20071;-78
2023/10/28 12:50:43;;;;;;;4.80;1.38;;;12.40;99.90;;;;;;4952646;28;20058;-78
2023/10/28 12:53:29;;;;;;;4.43;1.20;;;12.40;99.90;;;;;;4975864;28;20041;-78
2023/10/28 12:56:15;;;;;;;2.78;1.20;;;12.40;99.90;;;;;;4962191;28;20046;-78
2023/10/28 12:59:01;;;;;;;3.47;1.38;;;12.40;99.90;;;;;;4963067;28;20061;-78
2023/10/28 13:01:48;;;;;;;3.85;1.20;;;12.40;99.90;;;;;;4974709;28;20038;-78
2023/10/28 13:04:34;;;;;;;2.85;1.00;;;12.40;99.90;;;;;;4963793;28;20386;-78
2023/10/28 13:07:21;;;;;;;2.67;1.02;;;12.30;99.90;;;;;;4975022;28;20042;-78
2023/10/28 13:10:10;;;;;;;2.85;1.05;;;12.30;99.90;;;;;;4963770;28;20046;-78
2023/10/28 13:12:58;;;;;;;2.80;1.10;;;12.30;99.90;;;;;;4950633;28;20043;-79
2023/10/28 13:15:44;;;;;;;1.08;0.90;;;12.30;99.90;;;;;;4951552;28;20132;-79
2023/10/28 13:18:30;;;;;;;2.05;1.42;;;12.40;99.90;;;;;;4949490;28;20756;-78
2023/10/28 13:21:16;;;;;;;3.15;1.23;;;12.30;99.90;;;;;;4976191;28;20074;-78
2023/10/28 13:24:02;;;;;;;3.47;1.60;;;12.40;99.90;;;;;;4972154;28;20057;-78
2023/10/28 13:26:48;;;;;;;5.57;1.42;;;12.30;99.90;;;;;;4974199;28;20041;-78
2023/10/28 13:29:34;;;;;;;2.90;1.20;;;12.30;99.90;;;;;;4961916;28;20827;-78
2023/10/28 13:32:20;;;;;;;4.75;1.33;;;12.30;99.90;;;;;;4948772;28;20186;-78
2023/10/28 13:35:08;;;;;;;5.75;1.55;;;12.40;99.90;;;;;;4962573;28;20122;-78
2023/10/28 13:37:54;;;;;;;4.70;1.30;;;12.40;99.90;;;;;;4968169;28;20422;-78
2023/10/28 13:40:40;;;;;;;3.25;1.40;;;12.40;99.90;;;;;;4959057;28;20043;-80
2023/10/28 13:43:26;;;;;;;6.72;1.48;;;12.40;99.90;;;;;;4967221;28;20042;-78
2023/10/28 13:46:12;;;;;;;4.10;2.05;;;12.40;99.90;;;;;;4975620;28;20050;-79
2023/10/28 13:48:58;;;;;;;3.67;1.45;;;12.40;99.90;;;;;;4962884;28;20490;-79
2023/10/28 13:51:44;;;;;;;4.05;1.40;;;12.40;99.90;;;;;;4953453;28;20038;-79
2023/10/28 13:54:33;;;;;;;3.53;0.98;;;12.40;99.90;;;;;;4942197;29;20551;-79
2023/10/28 13:57:19;;;;;;;3.65;0.95;;;12.40;99.90;;;;;;4954300;28;20410;-79
2023/10/28 14:00:10;;;;;;;2.67;0.90;;;12.40;99.90;;;;;;4974883;28;20541;-79
2023/10/28 14:02:56;;;;;;;2.65;1.00;;;12.40;99.90;;;;;;4952628;28;20043;-79
2023/10/28 14:05:43;;;;;;;2.35;1.10;;;12.30;99.90;;;;;;4968949;28;20479;-79
2023/10/28 14:08:29;;;;;;;3.40;1.20;;;12.40;99.90;;;;;;4974862;28;20053;-79
2023/10/28 14:11:15;;;;;;;3.10;1.20;;;12.30;99.90;;;;;;4960913;28;20105;-79
2023/10/28 14:14:01;;;;;;;2.78;1.17;;;12.40;99.90;;;;;;4972919;28;20042;-79
2023/10/28 14:16:47;;;;;;;3.15;1.27;;;12.30;99.90;;;;;;4951396;28;20054;-79